KFRI

Marshall AAF Airport

Fort Riley(Junction City), Kansas, USA
METAR KFRI 180656Z AUTO 15011KT 10SM CLR 04/M10 A3008 RMK AO2 SLP188 T00401101
Observed Flight Rules
Feb-18 @ 06:56 UTC (19 minutes ago) Visual Flight Rules
Wind Visibility Clouds
150° at 11 knots 10 miles
  • Clear skies
Temperatures Readings
Current 4°C / 39°F
Dewpoint -10°C / 14°F
Humidity 36%
Altimeter 30.08" Hg
Pressure 1018.8 hPa
Elevation 325
METAR KFRI 180656Z AUTO 15011KT 10SM CLR 04/M10 A3008 RMK AO2 SLP188 T00401101
Observed Flight Rules
Feb-18 @ 06:56 UTC
(19 minutes ago)
VFR
Wind Visibility
150° at 11 knots 10 miles
Clouds
  • Clear skies
Temperature Dewpoint
4°C / 39°F -10°C / 14°F
Humidity Altimeter Pressure
36% 30.08" Hg 1018.8 hPa